sensor_id;sensor_type;location;lat;lon;timestamp;P1;durP1;ratioP1;P2;durP2;ratioP2
53453;SDS011;49404;50.472;6.954;2022-08-20T00:01:04;0.73;;;0.50;;
53453;SDS011;49404;50.472;6.954;2022-08-20T00:03:36;0.65;;;0.60;;
53453;SDS011;49404;50.472;6.954;2022-08-20T00:06:15;1.00;;;0.57;;
53453;SDS011;49404;50.472;6.954;2022-08-20T00:08:46;0.90;;;0.70;;
53453;SDS011;49404;50.472;6.954;2022-08-20T00:11:14;1.25;;;0.60;;
53453;SDS011;49404;50.472;6.954;2022-08-20T00:13:51;1.45;;;0.60;;
53453;SDS011;49404;50.472;6.954;2022-08-20T00:16:25;0.68;;;0.60;;
53453;SDS011;49404;50.472;6.954;2022-08-20T00:19:00;0.95;;;0.77;;
53453;SDS011;49404;50.472;6.954;2022-08-20T00:21:27;1.35;;;0.80;;
53453;SDS011;49404;50.472;6.954;2022-08-20T00:23:54;0.95;;;0.50;;
53453;SDS011;49404;50.472;6.954;2022-08-20T00:26:23;1.35;;;0.50;;
53453;SDS011;49404;50.472;6.954;2022-08-20T00:28:49;1.08;;;0.45;;
53453;SDS011;49404;50.472;6.954;2022-08-20T00:31:17;1.27;;;0.50;;
53453;SDS011;49404;50.472;6.954;2022-08-20T00:33:48;1.35;;;0.70;;
53453;SDS011;49404;50.472;6.954;2022-08-20T00:36:14;0.60;;;0.55;;
53453;SDS011;49404;50.472;6.954;2022-08-20T00:38:42;1.00;;;0.77;;
53453;SDS011;49404;50.472;6.954;2022-08-20T00:41:17;1.63;;;0.80;;
53453;SDS011;49404;50.472;6.954;2022-08-20T00:43:51;1.85;;;0.70;;
53453;SDS011;49404;50.472;6.954;2022-08-20T00:46:30;1.30;;;0.70;;
53453;SDS011;49404;50.472;6.954;2022-08-20T00:49:07;2.08;;;1.02;;
53453;SDS011;49404;50.472;6.954;2022-08-20T00:54:18;2.88;;;1.00;;
53453;SDS011;49404;50.472;6.954;2022-08-20T00:56:54;2.78;;;0.80;;
53453;SDS011;49404;50.472;6.954;2022-08-20T00:59:28;1.73;;;1.00;;
53453;SDS011;49404;50.472;6.954;2022-08-20T01:02:04;1.30;;;1.00;;
53453;SDS011;49404;50.472;6.954;2022-08-20T01:04:36;2.10;;;0.90;;
53453;SDS011;49404;50.472;6.954;2022-08-20T01:07:03;2.60;;;0.90;;
53453;SDS011;49404;50.472;6.954;2022-08-20T01:09:30;2.05;;;0.90;;
53453;SDS011;49404;50.472;6.954;2022-08-20T01:12:03;1.27;;;0.90;;
53453;SDS011;49404;50.472;6.954;2022-08-20T01:14:30;1.55;;;0.80;;
53453;SDS011;49404;50.472;6.954;2022-08-20T01:17:05;1.67;;;0.88;;
53453;SDS011;49404;50.472;6.954;2022-08-20T01:19:42;0.82;;;0.60;;
53453;SDS011;49404;50.472;6.954;2022-08-20T01:22:13;3.28;;;0.70;;
53453;SDS011;49404;50.472;6.954;2022-08-20T01:25:07;1.13;;;0.60;;
53453;SDS011;49404;50.472;6.954;2022-08-20T01:27:40;1.38;;;0.70;;
53453;SDS011;49404;50.472;6.954;2022-08-20T01:30:07;0.77;;;0.60;;
53453;SDS011;49404;50.472;6.954;2022-08-20T01:32:39;1.33;;;0.60;;
53453;SDS011;49404;50.472;6.954;2022-08-20T01:35:05;1.35;;;0.52;;
53453;SDS011;49404;50.472;6.954;2022-08-20T01:37:35;1.17;;;0.55;;
53453;SDS011;49404;50.472;6.954;2022-08-20T01:40:03;1.52;;;0.60;;
53453;SDS011;49404;50.472;6.954;2022-08-20T01:42:39;1.38;;;0.50;;
53453;SDS011;49404;50.472;6.954;2022-08-20T01:45:14;0.50;;;0.50;;
53453;SDS011;49404;50.472;6.954;2022-08-20T01:47:40;1.00;;;0.50;;
53453;SDS011;49404;50.472;6.954;2022-08-20T01:50:17;1.52;;;0.60;;
53453;SDS011;49404;50.472;6.954;2022-08-20T01:52:56;1.20;;;0.70;;
53453;SDS011;49404;50.472;6.954;2022-08-20T01:55:41;1.02;;;0.57;;
53453;SDS011;49404;50.472;6.954;2022-08-20T01:58:07;1.10;;;0.50;;
53453;SDS011;49404;50.472;6.954;2022-08-20T02:00:35;0.70;;;0.45;;
53453;SDS011;49404;50.472;6.954;2022-08-20T02:03:01;0.80;;;0.50;;
53453;SDS011;49404;50.472;6.954;2022-08-20T02:05:28;1.02;;;0.50;;
53453;SDS011;49404;50.472;6.954;2022-08-20T02:07:54;1.35;;;0.60;;
53453;SDS011;49404;50.472;6.954;2022-08-20T02:10:26;1.00;;;0.57;;
53453;SDS011;49404;50.472;6.954;2022-08-20T02:12:55;1.10;;;0.45;;
53453;SDS011;49404;50.472;6.954;2022-08-20T02:15:29;1.73;;;0.40;;
53453;SDS011;49404;50.472;6.954;2022-08-20T02:17:55;1.05;;;0.40;;
53453;SDS011;49404;50.472;6.954;2022-08-20T02:20:27;1.98;;;0.57;;
53453;SDS011;49404;50.472;6.954;2022-08-20T02:22:55;0.98;;;0.52;;
53453;SDS011;49404;50.472;6.954;2022-08-20T02:25:26;0.90;;;0.50;;
53453;SDS011;49404;50.472;6.954;2022-08-20T02:27:56;2.33;;;0.50;;
53453;SDS011;49404;50.472;6.954;2022-08-20T02:30:28;1.02;;;0.60;;
53453;SDS011;49404;50.472;6.954;2022-08-20T02:33:01;2.03;;;0.75;;
53453;SDS011;49404;50.472;6.954;2022-08-20T02:35:29;1.45;;;0.70;;
53453;SDS011;49404;50.472;6.954;2022-08-20T02:37:58;6.25;;;0.80;;
53453;SDS011;49404;50.472;6.954;2022-08-20T02:40:28;2.30;;;0.80;;
53453;SDS011;49404;50.472;6.954;2022-08-20T02:42:55;1.00;;;0.50;;
53453;SDS011;49404;50.472;6.954;2022-08-20T02:45:20;1.92;;;0.82;;
53453;SDS011;49404;50.472;6.954;2022-08-20T02:47:52;1.58;;;0.60;;
53453;SDS011;49404;50.472;6.954;2022-08-20T02:50:20;1.35;;;0.70;;
53453;SDS011;49404;50.472;6.954;2022-08-20T02:52:50;2.45;;;0.80;;
53453;SDS011;49404;50.472;6.954;2022-08-20T02:55:19;1.92;;;0.90;;
53453;SDS011;49404;50.472;6.954;2022-08-20T02:57:46;1.20;;;0.70;;
53453;SDS011;49404;50.472;6.954;2022-08-20T03:00:16;1.13;;;0.65;;
53453;SDS011;49404;50.472;6.954;2022-08-20T03:02:44;1.40;;;0.82;;
53453;SDS011;49404;50.472;6.954;2022-08-20T03:05:11;1.27;;;0.75;;
53453;SDS011;49404;50.472;6.954;2022-08-20T03:07:47;1.23;;;0.70;;
53453;SDS011;49404;50.472;6.954;2022-08-20T03:10:22;1.50;;;0.70;;
53453;SDS011;49404;50.472;6.954;2022-08-20T03:12:55;1.33;;;0.85;;
53453;SDS011;49404;50.472;6.954;2022-08-20T03:15:20;2.17;;;0.88;;
53453;SDS011;49404;50.472;6.954;2022-08-20T03:17:46;1.45;;;1.05;;
53453;SDS011;49404;50.472;6.954;2022-08-20T03:20:15;1.70;;;0.80;;
53453;SDS011;49404;50.472;6.954;2022-08-20T03:22:41;1.08;;;0.68;;
53453;SDS011;49404;50.472;6.954;2022-08-20T03:25:07;2.08;;;0.90;;
53453;SDS011;49404;50.472;6.954;2022-08-20T03:27:33;1.05;;;0.82;;
53453;SDS011;49404;50.472;6.954;2022-08-20T03:29:59;0.95;;;0.75;;
53453;SDS011;49404;50.472;6.954;2022-08-20T03:32:32;1.55;;;0.98;;
53453;SDS011;49404;50.472;6.954;2022-08-20T03:34:58;1.48;;;1.00;;
53453;SDS011;49404;50.472;6.954;2022-08-20T03:37:23;1.77;;;1.08;;
53453;SDS011;49404;50.472;6.954;2022-08-20T03:39:56;1.95;;;1.13;;
53453;SDS011;49404;50.472;6.954;2022-08-20T03:42:22;1.73;;;1.20;;
53453;SDS011;49404;50.472;6.954;2022-08-20T03:44:54;1.20;;;1.08;;
53453;SDS011;49404;50.472;6.954;2022-08-20T03:47:20;1.88;;;1.10;;
53453;SDS011;49404;50.472;6.954;2022-08-20T03:49:45;1.98;;;1.02;;
53453;SDS011;49404;50.472;6.954;2022-08-20T03:52:18;2.08;;;1.17;;
53453;SDS011;49404;50.472;6.954;2022-08-20T03:54:43;1.98;;;0.95;;
53453;SDS011;49404;50.472;6.954;2022-08-20T03:57:16;0.88;;;0.88;;
53453;SDS011;49404;50.472;6.954;2022-08-20T03:59:42;1.35;;;0.80;;
53453;SDS011;49404;50.472;6.954;2022-08-20T04:02:08;1.67;;;0.98;;
53453;SDS011;49404;50.472;6.954;2022-08-20T04:04:35;1.75;;;0.80;;
53453;SDS011;49404;50.472;6.954;2022-08-20T04:07:11;1.40;;;0.80;;
53453;SDS011;49404;50.472;6.954;2022-08-20T04:09:41;1.70;;;0.90;;
53453;SDS011;49404;50.472;6.954;2022-08-20T04:12:08;1.10;;;0.70;;
53453;SDS011;49404;50.472;6.954;2022-08-20T04:14:43;1.38;;;0.80;;
53453;SDS011;49404;50.472;6.954;2022-08-20T04:17:10;1.17;;;0.70;;
53453;SDS011;49404;50.472;6.954;2022-08-20T04:19:40;1.75;;;0.70;;
53453;SDS011;49404;50.472;6.954;2022-08-20T04:22:06;1.63;;;0.80;;
53453;SDS011;49404;50.472;6.954;2022-08-20T04:24:32;1.48;;;0.80;;
53453;SDS011;49404;50.472;6.954;2022-08-20T04:27:06;1.23;;;0.70;;
53453;SDS011;49404;50.472;6.954;2022-08-20T04:29:33;1.48;;;1.00;;
53453;SDS011;49404;50.472;6.954;2022-08-20T04:32:00;1.40;;;0.60;;
53453;SDS011;49404;50.472;6.954;2022-08-20T04:34:32;1.40;;;0.70;;
53453;SDS011;49404;50.472;6.954;2022-08-20T04:36:58;1.92;;;0.90;;
53453;SDS011;49404;50.472;6.954;2022-08-20T04:39:24;1.52;;;0.82;;
53453;SDS011;49404;50.472;6.954;2022-08-20T04:41:53;1.17;;;0.60;;
53453;SDS011;49404;50.472;6.954;2022-08-20T04:44:19;1.25;;;0.60;;
53453;SDS011;49404;50.472;6.954;2022-08-20T04:46:46;1.30;;;0.70;;
53453;SDS011;49404;50.472;6.954;2022-08-20T04:49:12;1.30;;;0.65;;
53453;SDS011;49404;50.472;6.954;2022-08-20T04:51:43;0.85;;;0.82;;
53453;SDS011;49404;50.472;6.954;2022-08-20T04:54:09;1.05;;;0.90;;
53453;SDS011;49404;50.472;6.954;2022-08-20T04:56:44;1.38;;;1.00;;
53453;SDS011;49404;50.472;6.954;2022-08-20T04:59:10;3.45;;;1.00;;
53453;SDS011;49404;50.472;6.954;2022-08-20T05:01:36;1.52;;;1.20;;
53453;SDS011;49404;50.472;6.954;2022-08-20T05:04:08;1.60;;;1.40;;
53453;SDS011;49404;50.472;6.954;2022-08-20T05:06:33;1.60;;;1.50;;
53453;SDS011;49404;50.472;6.954;2022-08-20T05:08:59;2.45;;;1.70;;
53453;SDS011;49404;50.472;6.954;2022-08-20T05:11:32;1.85;;;1.52;;
53453;SDS011;49404;50.472;6.954;2022-08-20T05:13:59;1.98;;;1.60;;
53453;SDS011;49404;50.472;6.954;2022-08-20T05:16:24;2.17;;;1.73;;
53453;SDS011;49404;50.472;6.954;2022-08-20T05:18:56;2.38;;;1.50;;
53453;SDS011;49404;50.472;6.954;2022-08-20T05:21:24;1.80;;;1.58;;
53453;SDS011;49404;50.472;6.954;2022-08-20T05:23:49;2.42;;;1.50;;
53453;SDS011;49404;50.472;6.954;2022-08-20T05:26:18;2.90;;;2.00;;
53453;SDS011;49404;50.472;6.954;2022-08-20T05:28:44;2.80;;;2.10;;
53453;SDS011;49404;50.472;6.954;2022-08-20T05:31:13;7.68;;;2.40;;
53453;SDS011;49404;50.472;6.954;2022-08-20T05:33:41;2.78;;;2.10;;
53453;SDS011;49404;50.472;6.954;2022-08-20T05:36:07;2.70;;;1.50;;
53453;SDS011;49404;50.472;6.954;2022-08-20T05:38:33;2.33;;;1.80;;
53453;SDS011;49404;50.472;6.954;2022-08-20T05:41:00;2.78;;;1.95;;
53453;SDS011;49404;50.472;6.954;2022-08-20T05:43:29;3.88;;;2.47;;
53453;SDS011;49404;50.472;6.954;2022-08-20T05:46:01;2.92;;;2.40;;
53453;SDS011;49404;50.472;6.954;2022-08-20T05:48:27;2.80;;;2.60;;
53453;SDS011;49404;50.472;6.954;2022-08-20T05:50:53;2.45;;;2.25;;
53453;SDS011;49404;50.472;6.954;2022-08-20T05:53:25;3.05;;;2.78;;
53453;SDS011;49404;50.472;6.954;2022-08-20T05:55:53;2.80;;;1.90;;
53453;SDS011;49404;50.472;6.954;2022-08-20T05:58:26;2.85;;;2.60;;
53453;SDS011;49404;50.472;6.954;2022-08-20T06:00:58;3.00;;;2.50;;
53453;SDS011;49404;50.472;6.954;2022-08-20T06:03:24;3.45;;;2.53;;
53453;SDS011;49404;50.472;6.954;2022-08-20T06:06:10;2.22;;;2.03;;
53453;SDS011;49404;50.472;6.954;2022-08-20T06:08:36;2.60;;;1.98;;
53453;SDS011;49404;50.472;6.954;2022-08-20T06:11:02;3.28;;;2.15;;
53453;SDS011;49404;50.472;6.954;2022-08-20T06:13:28;3.30;;;3.00;;
53453;SDS011;49404;50.472;6.954;2022-08-20T06:16:00;3.15;;;2.78;;
53453;SDS011;49404;50.472;6.954;2022-08-20T06:18:26;2.92;;;2.38;;
53453;SDS011;49404;50.472;6.954;2022-08-20T06:20:52;2.75;;;2.17;;
53453;SDS011;49404;50.472;6.954;2022-08-20T06:23:17;3.67;;;2.50;;
53453;SDS011;49404;50.472;6.954;2022-08-20T06:25:51;2.67;;;2.05;;
53453;SDS011;49404;50.472;6.954;2022-08-20T06:28:17;2.53;;;2.33;;
53453;SDS011;49404;50.472;6.954;2022-08-20T06:30:50;3.28;;;2.20;;
53453;SDS011;49404;50.472;6.954;2022-08-20T06:33:17;3.88;;;2.05;;
53453;SDS011;49404;50.472;6.954;2022-08-20T06:35:48;3.55;;;2.78;;
53453;SDS011;49404;50.472;6.954;2022-08-20T06:38:14;3.10;;;2.80;;
53453;SDS011;49404;50.472;6.954;2022-08-20T06:40:40;5.22;;;3.70;;
53453;SDS011;49404;50.472;6.954;2022-08-20T06:43:05;4.00;;;3.70;;
53453;SDS011;49404;50.472;6.954;2022-08-20T06:45:34;3.90;;;3.03;;
53453;SDS011;49404;50.472;6.954;2022-08-20T06:48:04;5.78;;;2.92;;
53453;SDS011;49404;50.472;6.954;2022-08-20T06:50:40;3.75;;;3.42;;
53453;SDS011;49404;50.472;6.954;2022-08-20T06:53:12;4.15;;;3.75;;
53453;SDS011;49404;50.472;6.954;2022-08-20T06:55:40;4.68;;;3.45;;
53453;SDS011;49404;50.472;6.954;2022-08-20T06:58:11;7.95;;;3.03;;
53453;SDS011;49404;50.472;6.954;2022-08-20T07:00:38;4.78;;;3.60;;
53453;SDS011;49404;50.472;6.954;2022-08-20T07:03:12;4.80;;;3.78;;
53453;SDS011;49404;50.472;6.954;2022-08-20T07:05:39;4.03;;;3.63;;
53453;SDS011;49404;50.472;6.954;2022-08-20T07:08:12;4.50;;;3.63;;
53453;SDS011;49404;50.472;6.954;2022-08-20T07:10:48;4.65;;;3.13;;
53453;SDS011;49404;50.472;6.954;2022-08-20T07:13:15;4.28;;;3.55;;
53453;SDS011;49404;50.472;6.954;2022-08-20T07:15:41;3.67;;;2.90;;
53453;SDS011;49404;50.472;6.954;2022-08-20T07:18:11;2.20;;;2.00;;
53453;SDS011;49404;50.472;6.954;2022-08-20T07:20:40;3.65;;;2.83;;
53453;SDS011;49404;50.472;6.954;2022-08-20T07:23:06;1.67;;;1.55;;
53453;SDS011;49404;50.472;6.954;2022-08-20T07:25:39;3.47;;;2.33;;
53453;SDS011;49404;50.472;6.954;2022-08-20T07:28:15;2.95;;;2.20;;
53453;SDS011;49404;50.472;6.954;2022-08-20T07:30:47;2.55;;;1.83;;
53453;SDS011;49404;50.472;6.954;2022-08-20T07:33:34;1.60;;;1.50;;
53453;SDS011;49404;50.472;6.954;2022-08-20T07:36:01;2.50;;;1.75;;
53453;SDS011;49404;50.472;6.954;2022-08-20T07:38:36;1.65;;;1.30;;
53453;SDS011;49404;50.472;6.954;2022-08-20T07:41:10;1.65;;;1.48;;
53453;SDS011;49404;50.472;6.954;2022-08-20T07:43:39;2.10;;;1.38;;
53453;SDS011;49404;50.472;6.954;2022-08-20T07:46:14;2.60;;;1.90;;
53453;SDS011;49404;50.472;6.954;2022-08-20T07:48:42;3.80;;;2.00;;
53453;SDS011;49404;50.472;6.954;2022-08-20T07:51:16;2.90;;;1.90;;
53453;SDS011;49404;50.472;6.954;2022-08-20T07:53:50;3.10;;;1.55;;
53453;SDS011;49404;50.472;6.954;2022-08-20T07:56:22;2.40;;;2.20;;
53453;SDS011;49404;50.472;6.954;2022-08-20T07:58:50;2.90;;;2.00;;
53453;SDS011;49404;50.472;6.954;2022-08-20T08:01:26;2.50;;;2.30;;
53453;SDS011;49404;50.472;6.954;2022-08-20T08:03:54;2.95;;;2.47;;
53453;SDS011;49404;50.472;6.954;2022-08-20T08:06:27;3.28;;;2.55;;
53453;SDS011;49404;50.472;6.954;2022-08-20T08:08:54;2.92;;;2.10;;
53453;SDS011;49404;50.472;6.954;2022-08-20T08:11:26;2.45;;;2.20;;
53453;SDS011;49404;50.472;6.954;2022-08-20T08:13:51;1.88;;;1.60;;
53453;SDS011;49404;50.472;6.954;2022-08-20T08:16:26;1.88;;;1.70;;
53453;SDS011;49404;50.472;6.954;2022-08-20T08:18:59;2.90;;;1.70;;
53453;SDS011;49404;50.472;6.954;2022-08-20T08:21:25;3.45;;;1.70;;
53453;SDS011;49404;50.472;6.954;2022-08-20T08:23:51;2.03;;;1.20;;
53453;SDS011;49404;50.472;6.954;2022-08-20T08:26:30;1.42;;;1.10;;
53453;SDS011;49404;50.472;6.954;2022-08-20T08:29:00;2.35;;;1.60;;
53453;SDS011;49404;50.472;6.954;2022-08-20T08:31:26;1.48;;;1.30;;
53453;SDS011;49404;50.472;6.954;2022-08-20T08:33:54;1.55;;;0.88;;
53453;SDS011;49404;50.472;6.954;2022-08-20T08:36:28;2.15;;;1.60;;
53453;SDS011;49404;50.472;6.954;2022-08-20T08:38:59;2.10;;;1.40;;
53453;SDS011;49404;50.472;6.954;2022-08-20T08:41:36;1.63;;;1.30;;
53453;SDS011;49404;50.472;6.954;2022-08-20T08:44:17;1.77;;;1.45;;
53453;SDS011;49404;50.472;6.954;2022-08-20T08:47:00;1.90;;;1.13;;
53453;SDS011;49404;50.472;6.954;2022-08-20T08:49:35;2.25;;;1.25;;
53453;SDS011;49404;50.472;6.954;2022-08-20T08:52:02;1.75;;;1.15;;
53453;SDS011;49404;50.472;6.954;2022-08-20T08:54:35;2.45;;;1.60;;
53453;SDS011;49404;50.472;6.954;2022-08-20T08:57:07;1.45;;;1.02;;
53453;SDS011;49404;50.472;6.954;2022-08-20T08:59:37;1.98;;;1.27;;
53453;SDS011;49404;50.472;6.954;2022-08-20T09:02:04;1.70;;;1.60;;
53453;SDS011;49404;50.472;6.954;2022-08-20T09:04:37;2.25;;;1.40;;
53453;SDS011;49404;50.472;6.954;2022-08-20T09:07:06;1.65;;;1.33;;
53453;SDS011;49404;50.472;6.954;2022-08-20T09:09:38;2.17;;;1.35;;
53453;SDS011;49404;50.472;6.954;2022-08-20T09:12:13;3.13;;;1.40;;
53453;SDS011;49404;50.472;6.954;2022-08-20T09:14:42;1.50;;;1.35;;
53453;SDS011;49404;50.472;6.954;2022-08-20T09:17:12;2.28;;;1.90;;
53453;SDS011;49404;50.472;6.954;2022-08-20T09:19:38;2.33;;;1.50;;
53453;SDS011;49404;50.472;6.954;2022-08-20T09:22:15;2.88;;;2.10;;
53453;SDS011;49404;50.472;6.954;2022-08-20T09:24:42;2.65;;;2.00;;
53453;SDS011;49404;50.472;6.954;2022-08-20T09:27:11;5.65;;;5.15;;
53453;SDS011;49404;50.472;6.954;2022-08-20T09:29:37;3.95;;;3.65;;
53453;SDS011;49404;50.472;6.954;2022-08-20T09:34:42;2.20;;;1.70;;
53453;SDS011;49404;50.472;6.954;2022-08-20T09:37:13;2.88;;;1.73;;
53453;SDS011;49404;50.472;6.954;2022-08-20T09:39:39;3.10;;;2.63;;
53453;SDS011;49404;50.472;6.954;2022-08-20T09:42:12;2.35;;;2.05;;
53453;SDS011;49404;50.472;6.954;2022-08-20T09:44:50;2.38;;;1.70;;
53453;SDS011;49404;50.472;6.954;2022-08-20T09:47:17;3.05;;;2.00;;
53453;SDS011;49404;50.472;6.954;2022-08-20T09:49:49;2.97;;;2.10;;
53453;SDS011;49404;50.472;6.954;2022-08-20T09:53:17;2.58;;;1.85;;
53453;SDS011;49404;50.472;6.954;2022-08-20T09:57:54;4.97;;;4.53;;
53453;SDS011;49404;50.472;6.954;2022-08-20T10:00:27;4.60;;;4.20;;
53453;SDS011;49404;50.472;6.954;2022-08-20T10:02:52;4.18;;;2.88;;
53453;SDS011;49404;50.472;6.954;2022-08-20T10:05:18;3.42;;;2.50;;
53453;SDS011;49404;50.472;6.954;2022-08-20T10:07:52;3.28;;;1.75;;
53453;SDS011;49404;50.472;6.954;2022-08-20T10:10:18;1.77;;;1.40;;
53453;SDS011;49404;50.472;6.954;2022-08-20T10:12:43;6.35;;;1.58;;
53453;SDS011;49404;50.472;6.954;2022-08-20T10:15:15;2.58;;;1.60;;
53453;SDS011;49404;50.472;6.954;2022-08-20T10:17:43;2.13;;;1.55;;
53453;SDS011;49404;50.472;6.954;2022-08-20T10:20:12;3.65;;;1.70;;
53453;SDS011;49404;50.472;6.954;2022-08-20T10:22:42;2.97;;;1.60;;
53453;SDS011;49404;50.472;6.954;2022-08-20T10:25:14;2.53;;;1.60;;
53453;SDS011;49404;50.472;6.954;2022-08-20T10:27:41;3.53;;;1.40;;
53453;SDS011;49404;50.472;6.954;2022-08-20T10:30:08;1.80;;;1.08;;
53453;SDS011;49404;50.472;6.954;2022-08-20T10:32:37;2.08;;;1.40;;
53453;SDS011;49404;50.472;6.954;2022-08-20T10:35:02;2.75;;;1.40;;
53453;SDS011;49404;50.472;6.954;2022-08-20T10:37:38;2.67;;;1.38;;
53453;SDS011;49404;50.472;6.954;2022-08-20T10:40:04;2.97;;;1.65;;
53453;SDS011;49404;50.472;6.954;2022-08-20T10:42:30;3.03;;;2.20;;
53453;SDS011;49404;50.472;6.954;2022-08-20T10:45:00;3.88;;;1.70;;
53453;SDS011;49404;50.472;6.954;2022-08-20T10:47:27;2.80;;;1.30;;
53453;SDS011;49404;50.472;6.954;2022-08-20T10:50:00;2.78;;;1.40;;
53453;SDS011;49404;50.472;6.954;2022-08-20T10:52:27;3.05;;;1.40;;
53453;SDS011;49404;50.472;6.954;2022-08-20T10:54:53;2.20;;;1.20;;
53453;SDS011;49404;50.472;6.954;2022-08-20T10:57:24;3.22;;;1.23;;
53453;SDS011;49404;50.472;6.954;2022-08-20T10:59:52;3.75;;;1.27;;
53453;SDS011;49404;50.472;6.954;2022-08-20T11:02:25;2.15;;;1.10;;
53453;SDS011;49404;50.472;6.954;2022-08-20T11:04:52;5.78;;;1.20;;
53453;SDS011;49404;50.472;6.954;2022-08-20T11:07:25;2.95;;;1.17;;
53453;SDS011;49404;50.472;6.954;2022-08-20T11:09:51;3.83;;;1.30;;
53453;SDS011;49404;50.472;6.954;2022-08-20T11:12:20;3.00;;;1.00;;
53453;SDS011;49404;50.472;6.954;2022-08-20T11:14:49;3.70;;;1.52;;
53453;SDS011;49404;50.472;6.954;2022-08-20T11:17:25;2.75;;;1.58;;
53453;SDS011;49404;50.472;6.954;2022-08-20T11:19:56;3.65;;;1.60;;
53453;SDS011;49404;50.472;6.954;2022-08-20T11:22:32;4.32;;;1.60;;
53453;SDS011;49404;50.472;6.954;2022-08-20T11:25:00;5.07;;;1.85;;
53453;SDS011;49404;50.472;6.954;2022-08-20T11:27:30;3.25;;;1.63;;
53453;SDS011;49404;50.472;6.954;2022-08-20T11:32:31;4.70;;;1.40;;
53453;SDS011;49404;50.472;6.954;2022-08-20T11:34:56;2.72;;;1.30;;
53453;SDS011;49404;50.472;6.954;2022-08-20T11:37:28;2.30;;;1.20;;
53453;SDS011;49404;50.472;6.954;2022-08-20T11:39:56;3.60;;;1.15;;
53453;SDS011;49404;50.472;6.954;2022-08-20T11:42:25;2.88;;;1.10;;
53453;SDS011;49404;50.472;6.954;2022-08-20T11:44:50;5.60;;;1.30;;
53453;SDS011;49404;50.472;6.954;2022-08-20T11:47:29;3.42;;;1.40;;
53453;SDS011;49404;50.472;6.954;2022-08-20T11:50:30;3.58;;;1.52;;
53453;SDS011;49404;50.472;6.954;2022-08-20T11:52:50;4.03;;;1.42;;
53453;SDS011;49404;50.472;6.954;2022-08-20T11:55:16;4.78;;;3.50;;
53453;SDS011;49404;50.472;6.954;2022-08-20T11:57:46;6.47;;;1.55;;
53453;SDS011;49404;50.472;6.954;2022-08-20T12:00:16;2.60;;;1.27;;
53453;SDS011;49404;50.472;6.954;2022-08-20T12:02:43;4.05;;;1.30;;
53453;SDS011;49404;50.472;6.954;2022-08-20T12:05:16;2.90;;;1.30;;
53453;SDS011;49404;50.472;6.954;2022-08-20T12:07:42;4.43;;;2.08;;
53453;SDS011;49404;50.472;6.954;2022-08-20T12:10:08;2.35;;;1.30;;
53453;SDS011;49404;50.472;6.954;2022-08-20T12:12:37;2.45;;;1.00;;
53453;SDS011;49404;50.472;6.954;2022-08-20T12:15:06;3.10;;;1.10;;
53453;SDS011;49404;50.472;6.954;2022-08-20T12:17:33;2.85;;;1.00;;
53453;SDS011;49404;50.472;6.954;2022-08-20T12:20:05;3.15;;;1.10;;
53453;SDS011;49404;50.472;6.954;2022-08-20T12:22:33;4.68;;;2.10;;
53453;SDS011;49404;50.472;6.954;2022-08-20T12:25:07;3.00;;;1.65;;
53453;SDS011;49404;50.472;6.954;2022-08-20T12:27:34;3.33;;;1.75;;
53453;SDS011;49404;50.472;6.954;2022-08-20T12:30:09;4.88;;;1.65;;
53453;SDS011;49404;50.472;6.954;2022-08-20T12:32:39;3.53;;;1.42;;
53453;SDS011;49404;50.472;6.954;2022-08-20T12:35:06;3.75;;;1.40;;
53453;SDS011;49404;50.472;6.954;2022-08-20T12:37:38;3.63;;;1.60;;
53453;SDS011;49404;50.472;6.954;2022-08-20T12:40:08;2.85;;;1.25;;
53453;SDS011;49404;50.472;6.954;2022-08-20T12:42:39;2.75;;;1.27;;
53453;SDS011;49404;50.472;6.954;2022-08-20T12:45:06;2.92;;;1.02;;
53453;SDS011;49404;50.472;6.954;2022-08-20T12:47:33;3.60;;;1.40;;
53453;SDS011;49404;50.472;6.954;2022-08-20T12:50:06;2.58;;;1.23;;
53453;SDS011;49404;50.472;6.954;2022-08-20T12:52:39;2.83;;;1.50;;
53453;SDS011;49404;50.472;6.954;2022-08-20T12:55:06;3.25;;;1.90;;
53453;SDS011;49404;50.472;6.954;2022-08-20T12:57:40;3.45;;;1.73;;
53453;SDS011;49404;50.472;6.954;2022-08-20T13:02:44;3.42;;;1.77;;
53453;SDS011;49404;50.472;6.954;2022-08-20T13:05:10;2.80;;;1.75;;
53453;SDS011;49404;50.472;6.954;2022-08-20T13:07:40;3.30;;;1.63;;
53453;SDS011;49404;50.472;6.954;2022-08-20T13:10:11;4.07;;;2.60;;
53453;SDS011;49404;50.472;6.954;2022-08-20T13:12:43;5.78;;;1.90;;
53453;SDS011;49404;50.472;6.954;2022-08-20T13:15:09;3.83;;;1.92;;
53453;SDS011;49404;50.472;6.954;2022-08-20T13:17:38;4.32;;;1.75;;
53453;SDS011;49404;50.472;6.954;2022-08-20T13:20:08;4.10;;;1.90;;
53453;SDS011;49404;50.472;6.954;2022-08-20T13:22:38;5.30;;;2.00;;
53453;SDS011;49404;50.472;6.954;2022-08-20T13:25:05;7.85;;;1.92;;
53453;SDS011;49404;50.472;6.954;2022-08-20T13:27:31;5.35;;;1.92;;
53453;SDS011;49404;50.472;6.954;2022-08-20T13:30:03;8.43;;;1.98;;
53453;SDS011;49404;50.472;6.954;2022-08-20T13:32:30;5.45;;;1.80;;
53453;SDS011;49404;50.472;6.954;2022-08-20T13:34:56;5.45;;;1.70;;
53453;SDS011;49404;50.472;6.954;2022-08-20T13:37:27;5.00;;;1.63;;
53453;SDS011;49404;50.472;6.954;2022-08-20T13:39:56;5.43;;;2.30;;
53453;SDS011;49404;50.472;6.954;2022-08-20T13:42:27;4.30;;;2.13;;
53453;SDS011;49404;50.472;6.954;2022-08-20T13:44:55;5.07;;;2.08;;
53453;SDS011;49404;50.472;6.954;2022-08-20T13:47:31;6.40;;;2.50;;
53453;SDS011;49404;50.472;6.954;2022-08-20T13:52:42;4.22;;;1.70;;
53453;SDS011;49404;50.472;6.954;2022-08-20T13:55:09;5.32;;;1.65;;
53453;SDS011;49404;50.472;6.954;2022-08-20T13:57:40;7.63;;;1.85;;
53453;SDS011;49404;50.472;6.954;2022-08-20T14:00:08;5.70;;;1.83;;
53453;SDS011;49404;50.472;6.954;2022-08-20T14:02:40;7.93;;;2.00;;
53453;SDS011;49404;50.472;6.954;2022-08-20T14:05:07;4.90;;;1.60;;
53453;SDS011;49404;50.472;6.954;2022-08-20T14:07:38;5.40;;;1.85;;
53453;SDS011;49404;50.472;6.954;2022-08-20T14:10:06;4.47;;;1.90;;
53453;SDS011;49404;50.472;6.954;2022-08-20T14:12:38;5.53;;;1.92;;
53453;SDS011;49404;50.472;6.954;2022-08-20T14:15:04;3.53;;;1.52;;
53453;SDS011;49404;50.472;6.954;2022-08-20T14:17:34;4.35;;;1.52;;
53453;SDS011;49404;50.472;6.954;2022-08-20T14:20:21;5.47;;;1.70;;
53453;SDS011;49404;50.472;6.954;2022-08-20T14:22:52;6.60;;;1.95;;
53453;SDS011;49404;50.472;6.954;2022-08-20T14:25:18;5.30;;;1.58;;
53453;SDS011;49404;50.472;6.954;2022-08-20T14:27:45;7.07;;;2.08;;
53453;SDS011;49404;50.472;6.954;2022-08-20T14:30:20;3.45;;;1.52;;
53453;SDS011;49404;50.472;6.954;2022-08-20T14:32:54;7.13;;;1.83;;
53453;SDS011;49404;50.472;6.954;2022-08-20T14:35:22;6.75;;;1.98;;
53453;SDS011;49404;50.472;6.954;2022-08-20T14:37:52;4.78;;;2.50;;
53453;SDS011;49404;50.472;6.954;2022-08-20T14:40:20;6.13;;;2.10;;
53453;SDS011;49404;50.472;6.954;2022-08-20T14:42:51;6.45;;;2.35;;
53453;SDS011;49404;50.472;6.954;2022-08-20T14:45:17;3.85;;;1.70;;
53453;SDS011;49404;50.472;6.954;2022-08-20T14:47:54;5.85;;;1.95;;
53453;SDS011;49404;50.472;6.954;2022-08-20T14:50:29;4.25;;;1.63;;
53453;SDS011;49404;50.472;6.954;2022-08-20T14:52:56;4.65;;;1.73;;
53453;SDS011;49404;50.472;6.954;2022-08-20T14:55:33;7.50;;;2.00;;
53453;SDS011;49404;50.472;6.954;2022-08-20T14:58:10;6.05;;;3.10;;
53453;SDS011;49404;50.472;6.954;2022-08-20T15:00:41;6.65;;;2.17;;
53453;SDS011;49404;50.472;6.954;2022-08-20T15:03:07;5.70;;;2.25;;
53453;SDS011;49404;50.472;6.954;2022-08-20T15:05:33;5.75;;;2.03;;
53453;SDS011;49404;50.472;6.954;2022-08-20T15:08:03;4.68;;;1.88;;
53453;SDS011;49404;50.472;6.954;2022-08-20T15:10:29;6.00;;;1.88;;
53453;SDS011;49404;50.472;6.954;2022-08-20T15:12:58;5.57;;;1.60;;
53453;SDS011;49404;50.472;6.954;2022-08-20T15:15:27;10.77;;;1.60;;
53453;SDS011;49404;50.472;6.954;2022-08-20T15:17:54;5.85;;;1.77;;
53453;SDS011;49404;50.472;6.954;2022-08-20T15:20:31;4.57;;;1.90;;